Time;durP1;ratioP1;P1;durP2;ratioP2;P2;SDS_P1;SDS_P2;PMS_P1;PMS_P2;Temp;Humidity;BMP_temperature;BMP_pressure;BME280_temperature;BME280_humidity;BME280_pressure;Samples;Min_cycle;Max_cycle;Signal;HPM_P1;HPM_P2
2021/07/11 00:00:28;;;;;;;2.73;2.53;;;17.80;99.90;;;;;;6110799;23;20433;-83
2021/07/11 00:02:54;;;;;;;2.87;2.67;;;17.70;99.90;;;;;;6113815;23;20413;-84
2021/07/11 00:05:23;;;;;;;2.50;2.30;;;17.60;99.90;;;;;;6115241;23;20439;-83
2021/07/11 00:07:51;;;;;;;3.10;2.70;;;17.60;99.90;;;;;;6113145;23;20418;-84
2021/07/11 00:10:19;;;;;;;3.40;2.17;;;17.50;99.90;;;;;;6114970;23;20883;-83
2021/07/11 00:12:47;;;;;;;3.13;2.93;;;17.40;99.90;;;;;;6113957;23;20418;-84
2021/07/11 00:15:16;;;;;;;2.30;2.17;;;17.40;99.90;;;;;;6113475;23;20454;-84
2021/07/11 00:17:44;;;;;;;2.80;2.60;;;17.30;99.90;;;;;;6116296;23;20418;-83
2021/07/11 00:20:14;;;;;;;3.17;2.87;;;17.20;99.90;;;;;;6117820;23;20488;-84
2021/07/11 00:22:41;;;;;;;2.33;2.23;;;17.10;99.90;;;;;;6117263;23;20407;-84
2021/07/11 00:25:11;;;;;;;2.73;2.53;;;17.10;99.90;;;;;;6117213;23;20440;-83
2021/07/11 00:27:38;;;;;;;3.07;2.63;;;17.10;99.90;;;;;;6117478;23;20398;-82
2021/07/11 00:30:06;;;;;;;2.90;2.70;;;17.00;99.90;;;;;;6115712;23;20414;-81
2021/07/11 00:32:32;;;;;;;2.53;2.27;;;16.90;99.90;;;;;;6114115;23;20446;-81
2021/07/11 00:34:59;;;;;;;2.50;2.30;;;16.80;99.90;;;;;;6114199;23;20431;-83
2021/07/11 00:37:26;;;;;;;2.07;1.97;;;16.80;99.90;;;;;;6114502;23;20421;-83
2021/07/11 00:39:53;;;;;;;2.37;2.17;;;16.80;99.90;;;;;;6112589;23;20416;-80
2021/07/11 00:42:21;;;;;;;2.30;2.10;;;16.70;99.90;;;;;;6113084;23;20473;-81
2021/07/11 00:44:47;;;;;;;2.93;2.30;;;16.70;99.90;;;;;;6113802;23;20434;-81
2021/07/11 00:47:14;;;;;;;2.30;2.20;;;16.70;99.90;;;;;;6114373;23;20410;-81
2021/07/11 00:49:43;;;;;;;2.10;2.00;;;16.60;99.90;;;;;;6113564;23;20410;-81
2021/07/11 00:52:10;;;;;;;5.37;2.50;;;16.70;99.90;;;;;;6112514;23;20450;-80
2021/07/11 00:54:37;;;;;;;4.27;2.40;;;16.60;99.90;;;;;;6112391;23;20410;-81
2021/07/11 00:57:04;;;;;;;2.87;2.67;;;16.60;99.90;;;;;;6112463;23;20407;-80
2021/07/11 00:59:33;;;;;;;2.17;2.00;;;16.60;99.90;;;;;;6113698;23;20424;-81
2021/07/11 01:02:07;;;;;;;2.97;2.77;;;16.60;99.90;;;;;;6111262;23;20425;-80
2021/07/11 01:04:43;;;;;;;2.53;2.10;;;16.60;99.90;;;;;;6111239;23;20438;-79
2021/07/11 01:07:11;;;;;;;4.30;2.70;;;16.50;99.90;;;;;;6110726;23;20489;-79
2021/07/11 01:09:42;;;;;;;3.43;2.63;;;16.50;99.90;;;;;;6113206;23;20415;-81
2021/07/11 01:12:15;;;;;;;2.63;2.43;;;16.50;99.90;;;;;;6112020;23;20442;-79
2021/07/11 01:14:46;;;;;;;2.40;2.20;;;16.60;99.90;;;;;;6112164;23;20468;-81
2021/07/11 01:17:14;;;;;;;3.30;2.77;;;16.60;99.90;;;;;;6113706;23;20410;-80
2021/07/11 01:19:52;;;;;;;2.53;2.40;;;16.60;99.90;;;;;;6114008;23;20417;-80
2021/07/11 01:22:21;;;;;;;2.60;2.50;;;16.70;99.90;;;;;;6113354;23;20419;-80
2021/07/11 01:24:54;;;;;;;2.70;2.53;;;16.70;99.90;;;;;;6112198;23;20423;-83
2021/07/11 01:27:23;;;;;;;3.17;2.60;;;16.70;99.90;;;;;;6113336;23;20407;-82
2021/07/11 01:29:50;;;;;;;3.00;2.77;;;16.80;99.90;;;;;;6112535;23;20421;-81
2021/07/11 01:32:17;;;;;;;2.73;2.53;;;16.80;99.90;;;;;;6111837;23;20447;-82
2021/07/11 01:34:45;;;;;;;2.33;2.20;;;16.70;99.90;;;;;;6111876;23;20435;-82
2021/07/11 01:37:12;;;;;;;2.90;2.67;;;16.60;99.90;;;;;;6111140;23;20411;-80
2021/07/11 01:39:42;;;;;;;2.93;2.63;;;16.60;99.90;;;;;;6109325;23;20420;-80
2021/07/11 01:42:10;;;;;;;2.50;2.30;;;16.60;99.90;;;;;;6111377;23;20882;-82
2021/07/11 01:44:39;;;;;;;2.97;2.73;;;16.50;99.90;;;;;;6110829;23;20446;-82
2021/07/11 01:47:07;;;;;;;2.30;2.10;;;16.50;99.90;;;;;;6111162;23;20415;-82
2021/07/11 01:49:35;;;;;;;2.23;2.13;;;16.50;99.90;;;;;;6109710;23;20417;-82
2021/07/11 01:52:03;;;;;;;2.27;2.10;;;16.50;99.90;;;;;;6104213;23;20459;-82
2021/07/11 01:54:30;;;;;;;2.60;2.40;;;16.50;99.90;;;;;;6107982;23;20434;-83
2021/07/11 01:56:57;;;;;;;2.60;2.40;;;16.50;99.90;;;;;;6106549;23;20408;-80
2021/07/11 01:59:23;;;;;;;3.47;3.27;;;16.50;99.90;;;;;;6107391;23;20417;-80
2021/07/11 02:01:52;;;;;;;2.47;2.27;;;16.50;99.90;;;;;;6107447;23;20417;-80
2021/07/11 02:04:19;;;;;;;3.37;3.07;;;16.50;99.90;;;;;;6108291;23;20437;-83
2021/07/11 02:06:45;;;;;;;3.00;2.37;;;16.50;99.90;;;;;;6106580;23;20425;-82
2021/07/11 02:09:12;;;;;;;2.30;2.20;;;16.50;99.90;;;;;;6107179;23;20424;-82
2021/07/11 02:11:42;;;;;;;3.10;2.90;;;16.60;99.90;;;;;;6107191;23;20448;-83
2021/07/11 02:14:13;;;;;;;3.93;2.83;;;16.60;99.90;;;;;;6104807;23;20454;-83
2021/07/11 02:16:47;;;;;;;3.93;3.63;;;16.60;99.90;;;;;;6109015;23;20412;-81
2021/07/11 02:19:16;;;;;;;2.70;2.60;;;16.60;99.90;;;;;;6106295;23;20437;-83
2021/07/11 02:21:43;;;;;;;2.50;2.30;;;16.60;99.90;;;;;;6107092;23;20410;-82
2021/07/11 02:24:11;;;;;;;4.00;3.60;;;16.60;99.90;;;;;;6107229;23;20442;-83
2021/07/11 02:26:38;;;;;;;2.90;2.70;;;16.60;99.90;;;;;;6108261;23;20414;-82
2021/07/11 02:29:06;;;;;;;2.30;2.20;;;16.60;99.90;;;;;;6109328;23;20438;-82
2021/07/11 02:31:36;;;;;;;2.70;2.50;;;16.60;99.90;;;;;;6107706;23;20445;-82
2021/07/11 02:34:04;;;;;;;3.00;2.80;;;16.50;99.90;;;;;;6108062;23;20434;-83
2021/07/11 02:36:34;;;;;;;2.60;2.40;;;16.50;99.90;;;;;;6107385;23;20421;-83
2021/07/11 02:39:06;;;;;;;2.70;2.50;;;16.50;99.90;;;;;;6109539;23;20418;-83
2021/07/11 02:41:36;;;;;;;2.87;2.50;;;16.50;99.90;;;;;;6107435;23;20398;-83
2021/07/11 02:44:06;;;;;;;4.20;4.00;;;16.50;99.90;;;;;;6108758;23;20440;-83
2021/07/11 02:46:38;;;;;;;6.33;2.73;;;16.50;99.90;;;;;;6110239;23;20384;-83
2021/07/11 02:49:12;;;;;;;2.90;2.70;;;16.50;99.90;;;;;;6109209;23;20402;-83
2021/07/11 02:51:44;;;;;;;3.00;2.80;;;16.50;99.90;;;;;;6108499;23;20744;-83
2021/07/11 02:54:18;;;;;;;3.17;2.97;;;16.50;99.90;;;;;;6109455;23;20438;-83
2021/07/11 02:56:49;;;;;;;2.67;2.50;;;16.50;99.90;;;;;;6111323;23;20771;-83
2021/07/11 02:59:17;;;;;;;3.07;2.87;;;16.50;99.90;;;;;;6111116;23;20404;-83
2021/07/11 03:01:44;;;;;;;2.93;2.73;;;16.50;99.90;;;;;;6108460;23;20414;-82
2021/07/11 03:04:14;;;;;;;3.50;3.20;;;16.40;99.90;;;;;;6109683;23;20429;-82
2021/07/11 03:06:42;;;;;;;2.33;2.20;;;16.40;99.90;;;;;;6110268;23;20422;-82
2021/07/11 03:09:08;;;;;;;3.00;2.80;;;16.50;99.90;;;;;;6109942;23;20419;-83
2021/07/11 03:11:38;;;;;;;3.33;3.13;;;16.50;99.90;;;;;;6109865;23;20460;-83
2021/07/11 03:14:07;;;;;;;3.23;2.70;;;16.50;99.90;;;;;;6110174;23;20442;-82
2021/07/11 03:16:35;;;;;;;3.47;3.27;;;16.40;99.90;;;;;;6111671;23;20419;-82
2021/07/11 03:19:02;;;;;;;3.13;2.80;;;16.40;99.90;;;;;;6110298;23;20413;-82
2021/07/11 03:21:29;;;;;;;2.80;2.50;;;16.40;99.90;;;;;;6110081;23;20423;-82
2021/07/11 03:23:58;;;;;;;2.53;2.33;;;16.40;99.90;;;;;;6111348;23;20435;-82
2021/07/11 03:26:27;;;;;;;3.23;3.03;;;16.40;99.90;;;;;;6110613;23;20419;-82
2021/07/11 03:28:55;;;;;;;4.10;3.30;;;16.30;99.90;;;;;;6110608;23;20507;-82
2021/07/11 03:31:23;;;;;;;2.93;2.73;;;16.30;99.90;;;;;;6110298;23;20418;-82
2021/07/11 03:33:54;;;;;;;2.90;2.70;;;16.20;99.90;;;;;;6110576;23;20439;-82
2021/07/11 03:36:23;;;;;;;3.57;3.30;;;16.20;99.90;;;;;;6110671;23;20404;-82
2021/07/11 03:38:57;;;;;;;3.27;3.07;;;16.20;99.90;;;;;;6111252;23;20414;-82
2021/07/11 03:41:30;;;;;;;3.03;2.83;;;16.20;99.90;;;;;;6110065;23;20402;-82
2021/07/11 03:43:58;;;;;;;3.00;2.80;;;16.20;99.90;;;;;;6110181;23;20442;-81
2021/07/11 03:46:29;;;;;;;3.90;3.53;;;16.20;99.90;;;;;;6110834;23;20414;-82
2021/07/11 03:48:58;;;;;;;3.40;3.20;;;16.30;99.90;;;;;;6110162;23;20403;-82
2021/07/11 03:51:28;;;;;;;3.03;2.83;;;16.30;99.90;;;;;;6113302;23;20419;-82
2021/07/11 03:53:57;;;;;;;4.17;3.77;;;16.30;99.90;;;;;;6111099;23;20436;-82
2021/07/11 03:56:28;;;;;;;3.53;3.23;;;16.30;99.90;;;;;;6111893;23;20418;-82
2021/07/11 03:58:57;;;;;;;2.77;2.57;;;16.40;99.90;;;;;;6112414;23;20395;-82
2021/07/11 04:01:25;;;;;;;3.40;3.10;;;16.40;99.90;;;;;;6110817;23;20408;-82
2021/07/11 04:03:53;;;;;;;3.40;3.03;;;16.40;99.90;;;;;;6110656;23;20746;-82
2021/07/11 04:06:21;;;;;;;2.67;2.40;;;16.40;99.90;;;;;;6111620;23;20397;-82
2021/07/11 04:08:49;;;;;;;3.53;3.33;;;16.50;99.90;;;;;;6111039;23;20410;-82
2021/07/11 04:11:16;;;;;;;3.37;3.07;;;16.50;99.90;;;;;;6111190;23;20402;-83
2021/07/11 04:13:44;;;;;;;3.47;3.27;;;16.50;99.90;;;;;;6109896;23;20457;-82
2021/07/11 04:16:11;;;;;;;3.80;3.20;;;16.50;99.90;;;;;;6111554;23;20913;-82
2021/07/11 04:18:40;;;;;;;3.17;2.87;;;16.50;99.90;;;;;;6112070;23;20416;-82
2021/07/11 04:21:07;;;;;;;3.10;2.80;;;16.50;99.90;;;;;;6111845;23;20409;-82
2021/07/11 04:23:35;;;;;;;4.13;3.83;;;16.60;99.90;;;;;;6111170;23;20450;-82
2021/07/11 04:26:03;;;;;;;3.03;2.60;;;16.50;99.90;;;;;;6111922;23;20424;-82
2021/07/11 04:28:32;;;;;;;3.03;2.83;;;16.50;99.90;;;;;;6111709;23;20442;-82
2021/07/11 04:31:01;;;;;;;2.67;2.47;;;16.50;99.90;;;;;;6111604;23;20465;-82
2021/07/11 04:33:28;;;;;;;4.30;3.47;;;16.50;99.90;;;;;;6110918;23;20431;-82
2021/07/11 04:35:55;;;;;;;2.90;2.70;;;16.40;99.90;;;;;;6110611;23;20413;-82
2021/07/11 04:38:21;;;;;;;4.30;3.47;;;16.40;99.90;;;;;;6110413;23;20409;-82
2021/07/11 04:40:50;;;;;;;3.23;2.93;;;16.40;99.90;;;;;;6111543;23;20749;-82
2021/07/11 04:43:19;;;;;;;5.00;3.27;;;16.50;99.90;;;;;;6112377;23;20452;-82
2021/07/11 04:45:46;;;;;;;4.03;2.93;;;16.50;99.90;;;;;;6111688;23;20562;-82
2021/07/11 04:48:15;;;;;;;3.73;3.03;;;16.50;99.90;;;;;;6112633;23;20415;-82
2021/07/11 04:50:43;;;;;;;3.63;3.33;;;16.50;99.90;;;;;;6111665;23;20409;-82
2021/07/11 04:53:10;;;;;;;3.33;3.03;;;16.50;99.90;;;;;;6112324;23;20401;-81
2021/07/11 04:55:37;;;;;;;3.33;3.03;;;16.50;99.90;;;;;;6112080;23;20422;-82
2021/07/11 04:58:03;;;;;;;3.03;2.83;;;16.60;99.90;;;;;;6110842;23;20779;-82
2021/07/11 05:00:30;;;;;;;3.37;2.90;;;16.60;99.90;;;;;;6111051;23;20415;-81
2021/07/11 05:02:57;;;;;;;3.13;2.93;;;16.70;99.90;;;;;;6108677;23;20450;-82
2021/07/11 05:05:25;;;;;;;3.10;2.90;;;16.80;99.90;;;;;;6110178;23;20439;-82
2021/07/11 05:07:52;;;;;;;3.73;3.47;;;16.80;99.90;;;;;;6110461;23;20422;-82
2021/07/11 05:10:18;;;;;;;2.40;2.30;;;16.80;99.90;;;;;;6112468;23;20420;-82
2021/07/11 05:12:45;;;;;;;3.93;3.53;;;16.90;99.90;;;;;;6111820;23;20413;-82
2021/07/11 05:15:13;;;;;;;3.70;3.40;;;16.90;99.90;;;;;;6100123;23;20800;-85
2021/07/11 05:17:40;;;;;;;2.70;2.60;;;17.00;99.90;;;;;;6099717;23;20446;-86
2021/07/11 05:20:08;;;;;;;3.27;3.00;;;17.00;99.90;;;;;;6098790;23;20433;-86
2021/07/11 05:22:36;;;;;;;3.87;2.90;;;17.00;99.90;;;;;;6099336;23;20905;-85
2021/07/11 05:25:04;;;;;;;3.13;2.93;;;17.00;99.90;;;;;;6100121;23;20793;-86
2021/07/11 05:27:30;;;;;;;2.73;2.53;;;17.00;99.90;;;;;;6099490;23;20795;-85
2021/07/11 05:29:57;;;;;;;2.77;2.50;;;17.00;99.90;;;;;;6098539;23;20534;-85
2021/07/11 05:32:24;;;;;;;3.60;3.30;;;17.00;99.90;;;;;;6098106;23;20411;-85
2021/07/11 05:34:50;;;;;;;3.10;2.83;;;17.10;99.90;;;;;;6098231;23;20465;-85
2021/07/11 05:37:17;;;;;;;2.70;2.50;;;17.20;99.90;;;;;;6097936;23;20414;-85
2021/07/11 05:39:45;;;;;;;3.00;2.67;;;17.20;99.90;;;;;;6098444;23;20418;-85
2021/07/11 05:42:12;;;;;;;3.37;3.17;;;17.30;99.90;;;;;;6097634;23;20426;-85
2021/07/11 05:44:38;;;;;;;9.70;3.00;;;17.30;99.90;;;;;;6097559;23;20447;-85
2021/07/11 05:47:06;;;;;;;3.13;2.93;;;17.40;99.90;;;;;;6097606;23;20420;-85
2021/07/11 05:49:32;;;;;;;2.90;2.70;;;17.50;99.90;;;;;;6097495;23;20726;-85
2021/07/11 05:52:00;;;;;;;3.27;3.03;;;17.50;99.90;;;;;;6097719;23;20410;-85
2021/07/11 05:54:26;;;;;;;2.87;2.67;;;17.60;99.90;;;;;;6097416;23;20495;-85
2021/07/11 05:56:54;;;;;;;2.70;2.60;;;17.70;99.90;;;;;;6097275;23;20742;-85
2021/07/11 05:59:21;;;;;;;3.40;2.83;;;17.80;99.90;;;;;;6097143;23;20419;-85
2021/07/11 06:01:48;;;;;;;2.23;2.10;;;17.90;99.90;;;;;;6097007;23;20483;-85
2021/07/11 06:04:14;;;;;;;2.37;2.17;;;18.00;99.90;;;;;;6096886;23;20459;-85
2021/07/11 06:06:41;;;;;;;3.20;2.93;;;18.10;99.90;;;;;;6096886;23;20420;-85
2021/07/11 06:09:08;;;;;;;2.63;2.43;;;18.10;99.90;;;;;;6096759;23;20418;-85
2021/07/11 06:11:34;;;;;;;2.90;2.70;;;18.20;99.90;;;;;;6096573;23;20415;-85
2021/07/11 06:14:02;;;;;;;2.67;2.47;;;18.30;99.90;;;;;;6096064;23;20506;-85
2021/07/11 06:16:29;;;;;;;2.67;2.40;;;18.40;99.90;;;;;;6096446;23;20444;-85
2021/07/11 06:18:56;;;;;;;3.90;3.20;;;18.50;99.90;;;;;;6095968;23;20909;-85
2021/07/11 06:21:22;;;;;;;2.77;2.57;;;18.60;99.90;;;;;;6096044;23;20930;-85
2021/07/11 06:23:49;;;;;;;2.70;2.50;;;18.50;99.90;;;;;;6095566;23;20460;-85
2021/07/11 06:26:16;;;;;;;3.10;2.80;;;18.50;99.90;;;;;;6096543;23;20471;-85
2021/07/11 06:28:42;;;;;;;2.40;2.20;;;18.60;99.90;;;;;;6096582;23;20412;-85
2021/07/11 06:31:10;;;;;;;2.77;2.67;;;18.50;99.90;;;;;;6097288;23;20409;-85
2021/07/11 06:33:37;;;;;;;3.17;2.30;;;18.40;99.90;;;;;;6096387;23;20744;-85
2021/07/11 06:36:04;;;;;;;2.70;2.50;;;18.40;99.90;;;;;;6096701;23;20787;-85
2021/07/11 06:38:31;;;;;;;2.60;2.40;;;18.30;99.90;;;;;;6096251;23;20477;-85
2021/07/11 06:40:58;;;;;;;2.93;2.73;;;18.40;99.90;;;;;;6096450;23;20925;-86
2021/07/11 06:43:25;;;;;;;3.20;2.20;;;18.50;99.90;;;;;;6095851;23;20443;-85
2021/07/11 06:45:52;;;;;;;3.27;2.97;;;18.50;99.90;;;;;;6096241;23;20415;-86
2021/07/11 06:48:20;;;;;;;2.93;2.73;;;18.60;99.90;;;;;;6096708;23;20422;-85
2021/07/11 06:50:46;;;;;;;3.60;2.87;;;18.60;99.90;;;;;;6096486;23;20408;-85
2021/07/11 06:53:13;;;;;;;2.60;2.40;;;18.50;99.90;;;;;;6097053;23;20750;-85
2021/07/11 06:55:40;;;;;;;3.57;3.27;;;18.20;99.90;;;;;;6097388;23;20442;-85
2021/07/11 06:58:07;;;;;;;2.80;2.53;;;18.20;99.90;;;;;;6097583;23;20419;-85
2021/07/11 07:00:34;;;;;;;2.97;2.77;;;18.10;99.90;;;;;;6096567;23;20430;-85
2021/07/11 07:03:00;;;;;;;3.53;3.33;;;18.00;99.90;;;;;;6097786;23;20443;-85
2021/07/11 07:05:29;;;;;;;2.00;1.90;;;18.00;99.90;;;;;;6100608;23;20436;-86
2021/07/11 07:07:56;;;;;;;3.50;2.70;;;18.00;99.90;;;;;;6099165;23;20427;-85
2021/07/11 07:10:23;;;;;;;2.90;2.70;;;18.10;99.90;;;;;;6098662;23;20417;-85
2021/07/11 07:12:50;;;;;;;3.63;2.33;;;18.10;99.90;;;;;;6097959;23;20459;-86
2021/07/11 07:15:17;;;;;;;2.70;2.50;;;18.20;99.90;;;;;;6097359;23;20458;-84
2021/07/11 07:17:44;;;;;;;2.40;2.30;;;18.30;99.90;;;;;;6103397;23;20905;-86
2021/07/11 07:20:13;;;;;;;2.50;2.30;;;18.40;99.90;;;;;;6099680;23;20414;-85
2021/07/11 07:26:16;;;;;;;2.40;2.23;;;18.70;99.90;;;;;;6095988;23;20422;-87
2021/07/11 07:28:44;;;;;;;2.73;2.47;;;19.00;99.90;;;;;;6096812;23;20414;-87
2021/07/11 07:31:11;;;;;;;2.30;2.10;;;19.20;99.90;;;;;;6100385;23;20408;-86
2021/07/11 07:33:38;;;;;;;2.60;2.40;;;19.50;99.90;;;;;;6098516;23;20515;-86
2021/07/11 07:36:05;;;;;;;3.37;3.17;;;19.80;99.90;;;;;;6098442;23;20415;-87
2021/07/11 07:38:33;;;;;;;2.27;2.00;;;20.00;99.90;;;;;;6098278;23;20401;-87
2021/07/11 07:41:00;;;;;;;2.37;2.17;;;20.20;99.90;;;;;;6098107;23;20397;-87
2021/07/11 07:43:26;;;;;;;2.03;1.83;;;20.20;99.90;;;;;;6097551;23;20448;-87
2021/07/11 07:45:53;;;;;;;2.70;2.50;;;20.10;99.90;;;;;;6098062;23;20427;-86
2021/07/11 07:48:20;;;;;;;2.37;2.20;;;20.10;99.90;;;;;;6098673;23;20405;-86
2021/07/11 07:50:47;;;;;;;4.50;2.80;;;20.00;99.90;;;;;;6099811;23;20689;-86
2021/07/11 07:53:13;;;;;;;2.70;2.50;;;19.90;99.90;;;;;;6098114;23;20416;-86
2021/07/11 07:55:41;;;;;;;3.60;2.00;;;19.80;99.90;;;;;;6097912;23;20441;-86
2021/07/11 07:58:08;;;;;;;2.87;2.67;;;19.50;99.90;;;;;;6098252;23;20412;-87
2021/07/11 08:00:35;;;;;;;2.70;2.33;;;19.30;99.90;;;;;;6098695;23;20413;-86
2021/07/11 08:03:02;;;;;;;2.60;2.40;;;19.40;99.90;;;;;;6098271;23;20447;-87
2021/07/11 08:05:28;;;;;;;3.03;2.83;;;19.30;99.90;;;;;;6098159;23;20443;-86
2021/07/11 08:07:55;;;;;;;2.63;2.43;;;19.40;99.90;;;;;;6098331;23;20418;-86
2021/07/11 08:10:22;;;;;;;2.50;2.30;;;19.60;99.90;;;;;;6098586;23;20412;-87
2021/07/11 08:12:51;;;;;;;2.27;2.07;;;19.60;99.90;;;;;;6097692;23;20412;-87
2021/07/11 08:15:19;;;;;;;2.37;2.17;;;19.80;99.90;;;;;;6097612;23;20453;-86
2021/07/11 08:17:48;;;;;;;2.47;2.37;;;20.00;99.90;;;;;;6098186;23;20421;-86
2021/07/11 08:20:16;;;;;;;3.57;2.30;;;20.10;99.90;;;;;;6097631;23;20925;-86
2021/07/11 08:22:43;;;;;;;2.00;1.90;;;20.30;99.90;;;;;;6097521;23;20535;-86
2021/07/11 08:25:11;;;;;;;1.87;1.77;;;20.50;99.90;;;;;;6100135;23;20442;-85
2021/07/11 08:27:39;;;;;;;1.77;1.67;;;20.60;99.90;;;;;;6106259;23;20413;-85
2021/07/11 08:30:10;;;;;;;2.27;2.00;;;20.60;99.90;;;;;;6105133;23;20411;-85
2021/07/11 08:32:37;;;;;;;1.87;1.77;;;20.70;99.90;;;;;;6104522;23;20424;-85
2021/07/11 08:35:06;;;;;;;2.40;2.20;;;20.70;99.90;;;;;;6102495;23;20956;-87
2021/07/11 08:37:35;;;;;;;2.70;2.50;;;20.60;99.90;;;;;;6097898;23;20413;-85
2021/07/11 08:40:02;;;;;;;1.57;1.47;;;20.50;99.90;;;;;;6098774;23;20419;-85
2021/07/11 08:42:29;;;;;;;2.33;2.10;;;20.50;99.90;;;;;;6097549;23;20411;-86
2021/07/11 08:44:56;;;;;;;2.37;2.17;;;20.30;99.90;;;;;;6097637;23;20435;-85
2021/07/11 08:47:24;;;;;;;2.20;2.10;;;20.10;99.90;;;;;;6098173;23;20422;-85
2021/07/11 08:49:51;;;;;;;2.77;2.57;;;20.00;99.90;;;;;;6098230;23;20423;-86
2021/07/11 08:52:17;;;;;;;2.53;2.33;;;19.90;99.90;;;;;;6099298;23;21084;-85
2021/07/11 08:54:44;;;;;;;2.67;2.47;;;20.00;99.90;;;;;;6099617;23;20528;-86
2021/07/11 08:57:12;;;;;;;3.47;2.47;;;20.00;99.90;;;;;;6097888;23;20416;-85
2021/07/11 08:59:39;;;;;;;2.33;2.13;;;20.00;99.90;;;;;;6097034;23;20402;-85
2021/07/11 09:02:07;;;;;;;4.37;2.90;;;20.00;99.90;;;;;;6096715;23;20428;-86
2021/07/11 09:04:40;;;;;;;2.60;2.40;;;20.00;99.90;;;;;;6096841;23;20429;-86
2021/07/11 09:07:07;;;;;;;2.20;2.10;;;20.00;99.90;;;;;;6096784;23;20404;-86
2021/07/11 09:09:36;;;;;;;2.57;2.40;;;20.10;99.90;;;;;;6096656;23;20412;-85
2021/07/11 09:12:06;;;;;;;2.63;2.13;;;20.30;99.90;;;;;;6097052;23;20511;-86
2021/07/11 09:14:36;;;;;;;4.13;2.53;;;20.40;99.90;;;;;;6096416;23;20452;-86
2021/07/11 09:17:17;;;;;;;2.03;1.93;;;20.50;99.90;;;;;;6097580;23;20420;-85
2021/07/11 09:19:53;;;;;;;2.40;2.30;;;20.50;99.90;;;;;;6096997;23;20890;-85
2021/07/11 09:22:27;;;;;;;1.80;1.70;;;20.60;99.90;;;;;;6096477;23;20404;-85
2021/07/11 09:24:55;;;;;;;2.10;2.00;;;20.70;99.90;;;;;;6096418;23;21019;-85
2021/07/11 09:27:25;;;;;;;2.53;2.33;;;20.90;99.90;;;;;;6097696;23;20448;-85
2021/07/11 09:29:53;;;;;;;2.47;1.80;;;21.10;99.90;;;;;;6097793;23;20472;-85
2021/07/11 09:32:25;;;;;;;3.97;2.20;;;21.30;99.90;;;;;;6096316;23;20475;-86
2021/07/11 09:35:21;;;;;;;2.20;2.10;;;21.50;99.00;;;;;;6096801;23;20529;-87
2021/07/11 09:37:59;;;;;;;2.53;2.30;;;21.70;98.70;;;;;;6097502;23;20422;-86
2021/07/11 09:40:37;;;;;;;4.93;3.80;;;21.80;98.60;;;;;;6096431;23;20386;-86
2021/07/11 09:45:59;;;;;;;2.40;2.20;;;22.10;97.10;;;;;;6076557;23;20439;-86
2021/07/11 09:48:40;;;;;;;2.70;2.50;;;22.20;96.90;;;;;;6095684;23;20387;-86
2021/07/11 09:51:19;;;;;;;1.87;1.77;;;22.20;96.90;;;;;;6095755;23;20942;-86
2021/07/11 09:53:56;;;;;;;3.10;2.60;;;22.20;96.20;;;;;;6094393;23;20562;-86
2021/07/11 09:56:31;;;;;;;1.90;1.67;;;22.10;96.20;;;;;;6095617;23;20421;-87
2021/07/11 09:58:58;;;;;;;2.10;2.00;;;22.10;96.50;;;;;;6097180;23;20425;-86
2021/07/11 10:01:25;;;;;;;2.23;2.07;;;22.20;97.20;;;;;;6096303;23;20421;-86
2021/07/11 10:03:57;;;;;;;2.00;1.90;;;22.20;96.50;;;;;;6096202;23;20428;-87
2021/07/11 10:06:26;;;;;;;2.60;2.40;;;22.20;96.70;;;;;;6095979;23;20424;-86
2021/07/11 10:08:58;;;;;;;1.77;1.67;;;22.40;96.50;;;;;;6096760;23;20416;-86
2021/07/11 10:11:27;;;;;;;1.50;1.40;;;22.40;95.80;;;;;;6096516;23;20404;-86
2021/07/11 10:13:54;;;;;;;2.33;2.20;;;22.40;96.60;;;;;;6095764;23;20460;-86
2021/07/11 10:16:24;;;;;;;1.80;1.67;;;22.30;96.10;;;;;;6096316;23;20475;-86
2021/07/11 10:18:56;;;;;;;2.60;2.40;;;22.20;95.90;;;;;;6095958;23;20400;-86
2021/07/11 10:21:29;;;;;;;1.60;1.50;;;22.10;95.90;;;;;;6095858;23;20434;-85
2021/07/11 10:23:56;;;;;;;1.63;1.53;;;22.00;95.00;;;;;;6096048;23;20432;-86
2021/07/11 10:26:25;;;;;;;2.27;2.17;;;22.00;95.60;;;;;;6095644;23;20415;-85
2021/07/11 10:28:52;;;;;;;1.80;1.70;;;22.00;95.00;;;;;;6095614;23;20898;-87
2021/07/11 10:31:21;;;;;;;2.50;2.33;;;22.20;96.00;;;;;;6096043;23;20424;-86
2021/07/11 10:33:49;;;;;;;2.40;2.20;;;22.30;96.10;;;;;;6095372;23;20451;-86
2021/07/11 10:36:17;;;;;;;2.67;2.50;;;22.40;95.80;;;;;;6095730;23;20525;-86
2021/07/11 10:38:56;;;;;;;2.00;1.90;;;22.50;95.40;;;;;;6095718;23;20409;-86
2021/07/11 10:41:26;;;;;;;4.57;4.13;;;22.30;95.50;;;;;;6095463;23;20877;-86
2021/07/11 10:44:02;;;;;;;2.30;2.20;;;22.10;95.60;;;;;;6095437;23;20825;-86
2021/07/11 10:46:37;;;;;;;2.27;2.07;;;21.90;96.10;;;;;;6095991;23;20961;-86
2021/07/11 10:55:44;;;;;;;4.00;2.47;;;21.70;97.50;;;;;;6086036;23;20458;-86
2021/07/11 10:58:20;;;;;;;4.20;2.90;;;21.10;99.90;;;;;;6094885;23;20416;-85
2021/07/11 11:00:50;;;;;;;4.57;3.63;;;20.90;99.90;;;;;;6096179;23;20421;-85
2021/07/11 11:03:19;;;;;;;5.17;4.10;;;20.60;99.90;;;;;;6100634;23;20394;-84
2021/07/11 11:05:48;;;;;;;3.50;3.20;;;20.40;99.90;;;;;;6110967;23;20408;-84
2021/07/11 11:08:17;;;;;;;3.70;3.10;;;20.30;99.90;;;;;;6112142;23;20517;-84
2021/07/11 11:10:47;;;;;;;2.87;2.67;;;20.10;99.90;;;;;;6104879;23;20423;-85
2021/07/11 11:13:25;;;;;;;3.67;3.37;;;20.00;99.90;;;;;;6104041;23;20403;-85
2021/07/11 11:15:53;;;;;;;3.07;2.80;;;19.90;99.90;;;;;;6099363;23;20464;-80
2021/07/11 11:18:25;;;;;;;3.27;3.07;;;19.80;99.90;;;;;;6101998;23;20409;-79
2021/07/11 11:20:55;;;;;;;2.60;2.40;;;19.80;99.90;;;;;;6102707;23;20978;-80
2021/07/11 11:23:23;;;;;;;3.83;3.53;;;19.70;99.90;;;;;;6101641;23;20413;-80
2021/07/11 11:25:51;;;;;;;3.77;3.47;;;19.70;99.90;;;;;;6102662;23;20433;-82
2021/07/11 11:28:34;;;;;;;3.17;2.90;;;19.70;99.90;;;;;;6105894;23;20421;-79
2021/07/11 11:31:06;;;;;;;3.07;2.60;;;19.70;99.90;;;;;;6104632;23;20397;-82
2021/07/11 11:33:45;;;;;;;3.40;3.10;;;19.70;99.90;;;;;;6104935;23;20417;-84
2021/07/11 11:36:12;;;;;;;3.13;2.83;;;19.80;99.90;;;;;;6105358;23;20392;-82
2021/07/11 11:38:42;;;;;;;2.90;2.70;;;19.90;99.90;;;;;;6104500;23;20499;-80
2021/07/11 11:41:13;;;;;;;3.00;2.80;;;20.00;99.90;;;;;;6103551;23;20403;-81
2021/07/11 11:43:39;;;;;;;2.90;2.70;;;20.10;99.90;;;;;;6103191;23;20401;-81
2021/07/11 11:46:06;;;;;;;2.70;2.50;;;20.40;99.90;;;;;;6103826;23;20469;-83
2021/07/11 11:48:33;;;;;;;2.83;2.63;;;20.70;99.90;;;;;;6102991;23;20443;-82
2021/07/11 11:51:03;;;;;;;2.70;2.50;;;21.00;99.90;;;;;;6103553;23;20787;-81
2021/07/11 11:53:30;;;;;;;2.43;2.23;;;21.30;99.90;;;;;;6102496;23;20414;-81
2021/07/11 11:55:58;;;;;;;2.87;2.00;;;21.60;99.90;;;;;;6103653;23;20466;-83
2021/07/11 11:58:30;;;;;;;2.27;2.17;;;21.80;99.90;;;;;;6102600;23;20906;-83
2021/07/11 12:01:01;;;;;;;3.10;2.83;;;22.00;99.90;;;;;;6102905;23;20399;-82
2021/07/11 12:03:28;;;;;;;2.90;2.70;;;22.20;99.90;;;;;;6102809;23;20408;-82
2021/07/11 12:05:55;;;;;;;3.10;2.87;;;22.40;99.90;;;;;;6103847;23;20425;-80
2021/07/11 12:08:22;;;;;;;2.97;2.67;;;22.60;99.90;;;;;;6103879;23;20424;-84
2021/07/11 12:10:58;;;;;;;2.70;2.50;;;22.80;99.90;;;;;;6107069;23;20488;-84
2021/07/11 12:34:34;;;;;;;2.00;1.90;;;24.50;99.90;;;;;;5941909;23;20411;-84
2021/07/11 12:47:30;;;;;;;2.13;2.03;;;26.50;99.90;;;;;;5961548;23;20431;-81
2021/07/11 12:50:24;;;;;;;;;;;;;;;;;;;;;
2021/07/11 15:51:27;;;;;;;2.30;1.57;;;33.60;50.90;;;;;;6078560;23;20435;-82
2021/07/11 15:54:08;;;;;;;1.53;1.43;;;33.80;52.30;;;;;;6078045;23;20401;-80
2021/07/11 15:56:39;;;;;;;2.27;1.90;;;34.50;51.60;;;;;;6075903;23;20488;-82
2021/07/11 15:59:30;;;;;;;1.93;1.50;;;35.50;49.70;;;;;;6074662;23;20415;-80
2021/07/11 16:01:57;;;;;;;1.50;1.40;;;36.00;47.40;;;;;;6076387;23;20406;-79
2021/07/11 16:04:25;;;;;;;1.57;1.47;;;35.60;47.20;;;;;;6074392;23;20421;-81
2021/07/11 16:06:54;;;;;;;1.73;1.63;;;35.00;47.20;;;;;;6073289;23;20492;-79
2021/07/11 16:09:22;;;;;;;1.70;1.60;;;34.30;47.90;;;;;;6073942;23;20421;-80
2021/07/11 16:11:49;;;;;;;2.13;1.70;;;33.70;49.10;;;;;;6073220;23;20422;-79
2021/07/11 16:14:15;;;;;;;2.27;2.17;;;33.00;50.80;;;;;;6078826;23;20436;-79
2021/07/11 16:16:42;;;;;;;2.17;2.07;;;32.50;53.10;;;;;;6080811;23;20450;-78
2021/07/11 16:19:09;;;;;;;1.90;1.70;;;32.60;51.80;;;;;;6086821;23;20412;-79
2021/07/11 16:21:37;;;;;;;1.47;1.37;;;32.50;51.50;;;;;;6083239;23;20413;-79
2021/07/11 16:24:06;;;;;;;1.50;1.40;;;32.80;52.80;;;;;;6086272;23;20452;-78
2021/07/11 16:26:33;;;;;;;1.80;1.70;;;33.40;51.60;;;;;;6085544;23;20412;-78
2021/07/11 16:29:00;;;;;;;2.27;2.10;;;33.60;51.10;;;;;;6083960;23;20394;-78
2021/07/11 16:31:27;;;;;;;1.50;1.40;;;33.60;52.00;;;;;;6084563;23;20417;-78
2021/07/11 16:33:53;;;;;;;1.90;1.80;;;33.40;52.10;;;;;;6082806;23;20876;-79
2021/07/11 16:36:20;;;;;;;1.60;1.50;;;33.10;52.30;;;;;;6085005;23;20452;-78
2021/07/11 16:38:47;;;;;;;1.70;1.60;;;32.90;51.20;;;;;;6085002;23;20417;-78